Time;durP1;ratioP1;P1;durP2;ratioP2;P2;SDS_P1;SDS_P2;PMS_P1;PMS_P2;Temp;Humidity;BMP_temperature;BMP_pressure;BME280_temperature;BME280_humidity;BME280_pressure;Samples;Min_cycle;Max_cycle;Signal;HPM_P1;HPM_P2
2023/08/17 00:01:48;;;;;;;8.55;2.60;;;;;19.30;101383.00;;;;10240851;28;20839;-78
2023/08/17 00:06:50;;;;;;;4.55;2.60;;;;;19.30;101385.00;;;;10261012;28;20357;-77
2023/08/17 00:11:54;;;;;;;4.38;2.50;;;;;19.10;101387.00;;;;10248899;28;20203;-77
2023/08/17 00:16:55;;;;;;;4.22;2.30;;;;;19.00;101389.00;;;;10265509;28;20611;-77
2023/08/17 00:21:57;;;;;;;6.00;2.75;;;;;18.90;101390.00;;;;10262193;28;20438;-78
2023/08/17 00:26:58;;;;;;;5.50;2.70;;;;;18.90;101388.00;;;;10263452;28;20905;-77
2023/08/17 00:32:01;;;;;;;6.63;2.72;;;;;18.90;101395.00;;;;10262586;28;21888;-76
2023/08/17 00:37:02;;;;;;;5.40;2.70;;;;;18.80;101397.00;;;;10243491;28;21589;-76
2023/08/17 00:42:04;;;;;;;3.20;2.60;;;;;18.70;101398.00;;;;10262489;28;20313;-77
2023/08/17 00:47:05;;;;;;;6.82;3.08;;;;;18.50;101406.00;;;;10261811;28;20243;-76
2023/08/17 00:52:07;;;;;;;3.58;3.28;;;;;18.30;101404.00;;;;10244887;28;20206;-77
2023/08/17 00:57:09;;;;;;;8.35;2.88;;;;;18.20;101401.00;;;;10262011;28;20269;-77
2023/08/17 01:02:10;;;;;;;3.88;2.95;;;;;18.10;101403.00;;;;10245865;28;20254;-77
2023/08/17 01:07:12;;;;;;;5.03;2.88;;;;;17.90;101401.00;;;;10248938;28;20235;-77
2023/08/17 01:12:31;;;;;;;4.63;3.17;;;;;17.90;101399.00;;;;10262282;28;20203;-78
2023/08/17 01:17:47;;;;;;;4.75;3.53;;;;;17.90;101393.00;;;;10245292;28;20581;-75
2023/08/17 01:22:51;;;;;;;6.32;3.33;;;;;18.00;101390.00;;;;10265687;28;20241;-78
2023/08/17 01:27:53;;;;;;;4.68;3.58;;;;;18.00;101398.00;;;;10268844;28;20333;-76
2023/08/17 01:33:00;;;;;;;3.40;3.10;;;;;18.10;101386.00;;;;10244734;28;20326;-78
2023/08/17 01:38:07;;;;;;;4.80;3.53;;;;;18.10;101393.00;;;;10245547;28;21022;-77
2023/08/17 01:43:10;;;;;;;5.47;3.42;;;;;18.10;101388.00;;;;10244401;28;20235;-77
2023/08/17 01:48:12;;;;;;;4.90;2.92;;;;;18.10;101386.00;;;;10262821;28;20227;-77
2023/08/17 01:53:13;;;;;;;3.45;3.08;;;;;18.00;101389.00;;;;10260759;28;20203;-78
2023/08/17 01:58:16;;;;;;;4.95;3.58;;;;;18.00;101379.00;;;;10228353;28;20521;-75
2023/08/17 02:03:17;;;;;;;7.00;3.33;;;;;18.10;101389.00;;;;10244969;28;20590;-77
2023/08/17 02:08:18;;;;;;;6.25;3.38;;;;;18.10;101382.00;;;;10262901;28;20211;-78
2023/08/17 02:13:20;;;;;;;9.23;3.28;;;;;18.20;101384.00;;;;10262384;28;20216;-77
2023/08/17 02:18:21;;;;;;;8.20;3.60;;;;;18.20;101386.00;;;;10263264;28;21037;-77
2023/08/17 02:23:23;;;;;;;10.25;3.72;;;;;18.20;101388.00;;;;10242471;28;20830;-78
2023/08/17 02:28:24;;;;;;;6.45;3.38;;;;;18.30;101388.00;;;;10260167;28;20196;-76
2023/08/17 02:33:25;;;;;;;6.70;3.50;;;;;18.20;101381.00;;;;10243132;28;21960;-77
2023/08/17 02:38:27;;;;;;;6.70;3.42;;;;;18.20;101375.00;;;;10242204;28;20211;-77
2023/08/17 02:43:28;;;;;;;4.22;2.90;;;;;18.20;101376.00;;;;10225095;28;20242;-78
2023/08/17 02:48:30;;;;;;;5.93;3.30;;;;;18.20;101368.00;;;;10259169;28;21410;-77
2023/08/17 02:53:34;;;;;;;6.30;3.33;;;;;18.20;101365.00;;;;10258639;28;20221;-78
2023/08/17 02:58:35;;;;;;;7.80;3.55;;;;;18.10;101365.00;;;;10259219;28;20218;-78
2023/08/17 03:03:37;;;;;;;7.15;3.45;;;;;17.90;101369.00;;;;10239379;28;21040;-78
2023/08/17 03:08:38;;;;;;;8.15;3.50;;;;;17.70;101382.00;;;;10241823;28;21501;-78
2023/08/17 03:13:39;;;;;;;12.45;4.38;;;;;17.50;101372.00;;;;10259005;28;20239;-77
2023/08/17 03:18:41;;;;;;;8.75;3.90;;;;;17.40;101370.00;;;;10257767;28;20581;-78
2023/08/17 03:23:47;;;;;;;9.18;3.75;;;;;17.30;101370.00;;;;10225829;28;20254;-78
2023/08/17 03:28:48;;;;;;;7.28;3.70;;;;;17.20;101371.00;;;;10257126;28;20427;-77
2023/08/17 03:33:50;;;;;;;5.85;3.60;;;;;17.20;101376.00;;;;10238926;28;20234;-75
2023/08/17 03:38:52;;;;;;;6.15;3.40;;;;;17.30;101380.00;;;;10238590;28;20472;-76
2023/08/17 03:43:54;;;;;;;5.72;3.55;;;;;17.30;101368.00;;;;10255120;28;20371;-77
2023/08/17 03:48:56;;;;;;;6.05;3.78;;;;;17.40;101368.00;;;;10238025;28;20919;-75
2023/08/17 03:53:57;;;;;;;7.88;4.10;;;;;17.40;101369.00;;;;10255482;28;20405;-76
2023/08/17 03:58:58;;;;;;;5.85;3.50;;;;;17.40;101356.00;;;;10238131;28;20810;-77
2023/08/17 04:04:00;;;;;;;5.18;3.25;;;;;17.40;101361.00;;;;10254604;28;20227;-77
2023/08/17 04:09:02;;;;;;;6.22;3.58;;;;;17.40;101371.00;;;;10238386;28;20199;-77
2023/08/17 04:14:04;;;;;;;8.82;3.47;;;;;17.50;101367.00;;;;10217892;28;20650;-77
2023/08/17 04:19:05;;;;;;;5.95;3.42;;;;;17.50;101375.00;;;;10256825;28;20494;-75
2023/08/17 04:24:07;;;;;;;7.15;4.07;;;;;17.50;101367.00;;;;10238573;28;20238;-76
2023/08/17 04:29:08;;;;;;;5.97;3.92;;;;;17.50;101376.00;;;;10254927;28;20673;-77
2023/08/17 04:34:11;;;;;;;5.57;4.10;;;;;17.60;101379.00;;;;10236018;28;20207;-75
2023/08/17 04:39:12;;;;;;;5.85;4.15;;;;;17.60;101381.00;;;;10236528;28;20211;-75
2023/08/17 04:44:14;;;;;;;5.82;3.80;;;;;17.60;101383.00;;;;10252759;28;20339;-77
2023/08/17 04:49:16;;;;;;;7.25;4.10;;;;;17.60;101378.00;;;;10222228;28;20961;-75
2023/08/17 04:54:17;;;;;;;5.30;4.00;;;;;17.60;101370.00;;;;10239674;28;21403;-76
2023/08/17 04:59:19;;;;;;;8.77;3.92;;;;;17.70;101378.00;;;;10242865;28;20250;-75
2023/08/17 05:04:20;;;;;;;8.13;4.00;;;;;17.70;101378.00;;;;10239885;28;20315;-77
2023/08/17 05:09:21;;;;;;;8.63;3.88;;;;;17.80;101386.00;;;;10242105;28;20281;-75
2023/08/17 05:14:23;;;;;;;6.38;3.38;;;;;17.80;101375.00;;;;10242232;28;21996;-77
2023/08/17 05:19:25;;;;;;;6.18;3.75;;;;;17.80;101377.00;;;;10241679;28;20215;-76
2023/08/17 05:24:29;;;;;;;6.70;3.55;;;;;17.90;101379.00;;;;10257989;28;20234;-76
2023/08/17 05:29:33;;;;;;;6.82;3.67;;;;;18.00;101382.00;;;;10245087;28;20195;-77
2023/08/17 05:34:35;;;;;;;6.70;3.85;;;;;18.00;101386.00;;;;10259656;28;20334;-76
2023/08/17 05:39:39;;;;;;;6.20;3.58;;;;;18.00;101383.00;;;;10261444;28;20709;-77
2023/08/17 05:44:40;;;;;;;6.38;3.80;;;;;18.20;101390.00;;;;10227513;28;20222;-77
2023/08/17 05:49:42;;;;;;;5.50;3.70;;;;;18.20;101376.00;;;;10259572;28;21656;-77
2023/08/17 05:54:43;;;;;;;6.20;3.10;;;;;18.20;101379.00;;;;10243544;28;20204;-77
2023/08/17 05:59:45;;;;;;;8.00;4.28;;;;;18.50;101383.00;;;;10260374;28;20207;-77
2023/08/17 06:04:48;;;;;;;7.32;3.63;;;;;18.60;101384.00;;;;10242576;28;21053;-77
2023/08/17 06:09:49;;;;;;;9.18;4.03;;;;;18.80;101385.00;;;;10242182;28;20958;-77
2023/08/17 06:14:52;;;;;;;9.23;3.45;;;;;18.80;101385.00;;;;10257098;28;20238;-75
2023/08/17 06:19:53;;;;;;;4.93;3.58;;;;;18.80;101391.00;;;;10241093;28;20212;-77
2023/08/17 06:24:54;;;;;;;4.75;3.83;;;;;18.80;101389.00;;;;10258363;28;20312;-77
2023/08/17 06:29:56;;;;;;;6.43;3.65;;;;;18.70;101402.00;;;;10258066;28;20211;-76
2023/08/17 06:34:58;;;;;;;6.63;3.63;;;;;18.80;101394.00;;;;10240776;28;21139;-76
2023/08/17 06:39:59;;;;;;;6.97;4.50;;;;;18.80;101393.00;;;;10259091;28;20215;-76
2023/08/17 06:45:01;;;;;;;9.07;4.70;;;;;18.80;101410.00;;;;10259245;28;21639;-76
2023/08/17 06:50:03;;;;;;;9.93;5.10;;;;;18.70;101412.00;;;;10224611;28;20935;-77
2023/08/17 06:55:04;;;;;;;6.10;4.35;;;;;18.80;101408.00;;;;10257467;28;20250;-77
2023/08/17 07:00:07;;;;;;;6.47;4.57;;;;;18.90;101411.00;;;;10206270;28;20219;-77
2023/08/17 07:05:10;;;;;;;5.80;4.30;;;;;19.00;101411.00;;;;10254836;28;20227;-75
2023/08/17 07:10:11;;;;;;;11.32;4.65;;;;;19.00;101407.00;;;;10254634;28;20207;-76
2023/08/17 07:15:12;;;;;;;8.80;5.47;;;;;18.90;101420.00;;;;10239351;28;20887;-76
2023/08/17 07:20:13;;;;;;;11.25;6.28;;;;;18.90;101423.00;;;;10239384;28;20215;-78
2023/08/17 07:25:17;;;;;;;14.25;6.45;;;;;19.10;101421.00;;;;10255609;28;20219;-76
2023/08/17 07:30:19;;;;;;;10.32;6.43;;;;;19.00;101418.00;;;;10239038;28;20812;-76
2023/08/17 07:35:20;;;;;;;11.52;6.70;;;;;19.10;101407.00;;;;10240758;28;20325;-77
2023/08/17 07:40:22;;;;;;;11.55;6.78;;;;;19.50;101402.00;;;;10237904;28;20231;-76
2023/08/17 07:45:23;;;;;;;9.90;6.55;;;;;20.20;101399.00;;;;10254364;28;20215;-76
2023/08/17 07:50:25;;;;;;;14.68;6.65;;;;;20.70;101391.00;;;;10256015;28;20251;-77
2023/08/17 07:55:26;;;;;;;8.32;5.93;;;;;20.90;101401.00;;;;10254614;28;20206;-77
2023/08/17 08:00:28;;;;;;;9.13;5.50;;;;;20.70;101397.00;;;;10237233;28;21441;-76
2023/08/17 08:05:29;;;;;;;10.27;5.03;;;;;20.70;101401.00;;;;10253611;28;20220;-76
2023/08/17 08:10:31;;;;;;;9.65;4.75;;;;;20.60;101395.00;;;;10239156;28;20242;-77
2023/08/17 08:15:36;;;;;;;10.90;4.93;;;;;20.80;101393.00;;;;10239919;28;21579;-76
2023/08/17 08:20:37;;;;;;;9.38;5.10;;;;;20.90;101401.00;;;;10238075;28;20294;-75
2023/08/17 08:25:39;;;;;;;8.13;4.93;;;;;20.80;101397.00;;;;10263528;28;20844;-77
2023/08/17 08:30:40;;;;;;;10.93;4.75;;;;;20.90;101391.00;;;;10262238;28;20207;-76
2023/08/17 08:35:43;;;;;;;5.28;4.43;;;;;21.00;101392.00;;;;10261038;28;20219;-78
2023/08/17 08:40:47;;;;;;;6.85;4.88;;;;;21.10;101399.00;;;;10264515;28;20204;-78
2023/08/17 08:45:51;;;;;;;11.48;4.90;;;;;21.30;101380.00;;;;10264590;28;20850;-77
2023/08/17 08:50:55;;;;;;;9.70;4.85;;;;;22.00;101389.00;;;;10245048;28;20247;-77
2023/08/17 08:55:59;;;;;;;5.88;4.15;;;;;22.30;101392.00;;;;10245453;28;20914;-77
2023/08/17 09:01:00;;;;;;;6.93;5.13;;;;;22.40;101400.00;;;;10228061;28;20945;-76
2023/08/17 09:06:04;;;;;;;5.32;4.72;;;;;22.70;101386.00;;;;10261682;28;20428;-77
2023/08/17 09:11:05;;;;;;;10.88;4.75;;;;;23.20;101374.00;;;;10261334;28;20217;-76
2023/08/17 09:16:07;;;;;;;12.63;5.88;;;;;23.40;101378.00;;;;10242197;28;20298;-77
2023/08/17 09:21:24;;;;;;;8.00;5.13;;;;;23.20;101370.00;;;;10262884;28;20227;-76
2023/08/17 09:26:29;;;;;;;11.70;5.78;;;;;23.00;101375.00;;;;10260021;28;20231;-77
2023/08/17 09:31:32;;;;;;;6.05;5.20;;;;;23.30;101372.00;;;;10260362;28;20693;-76
2023/08/17 09:36:36;;;;;;;9.98;5.90;;;;;23.90;101370.00;;;;10229453;28;20268;-76
2023/08/17 09:41:44;;;;;;;9.90;6.15;;;;;23.90;101371.00;;;;10263311;28;20870;-77
2023/08/17 09:46:46;;;;;;;14.27;6.72;;;;;23.90;101366.00;;;;10260951;28;20208;-76
2023/08/17 09:51:47;;;;;;;7.22;6.35;;;;;24.10;101370.00;;;;10260608;28;20238;-77
2023/08/17 09:56:52;;;;;;;11.10;6.35;;;;;24.30;101362.00;;;;10244873;28;20290;-76
2023/08/17 10:01:55;;;;;;;9.77;6.85;;;;;24.60;101361.00;;;;10242464;28;20223;-76
2023/08/17 10:07:03;;;;;;;9.63;5.97;;;;;25.10;101364.00;;;;10261821;28;20609;-78
2023/08/17 10:12:11;;;;;;;8.88;5.63;;;;;25.50;101358.00;;;;10259662;28;20210;-77
2023/08/17 10:17:26;;;;;;;10.60;5.97;;;;;25.50;101363.00;;;;10260311;28;21291;-78
2023/08/17 10:22:36;;;;;;;7.80;5.53;;;;;26.10;101360.00;;;;10241564;28;20222;-75
2023/08/17 10:27:38;;;;;;;14.18;6.28;;;;;26.40;101366.00;;;;10257245;28;20653;-77
2023/08/17 10:32:45;;;;;;;9.35;6.13;;;;;26.10;101359.00;;;;10243562;28;20207;-77
2023/08/17 10:37:46;;;;;;;9.00;6.18;;;;;26.40;101359.00;;;;10241377;28;20203;-75
2023/08/17 10:42:54;;;;;;;8.98;7.05;;;;;26.30;101352.00;;;;10258028;28;20238;-76
2023/08/17 10:48:05;;;;;;;8.38;7.38;;;;;26.50;101355.00;;;;10259555;28;20230;-77
2023/08/17 10:53:12;;;;;;;8.82;6.97;;;;;26.20;101361.00;;;;10261392;28;20210;-77
2023/08/17 10:58:13;;;;;;;12.60;6.70;;;;;25.80;101366.00;;;;10239898;28;20628;-76
2023/08/17 11:03:19;;;;;;;8.10;7.00;;;;;25.60;101363.00;;;;10257531;28;20237;-77
2023/08/17 11:08:38;;;;;;;9.40;6.40;;;;;25.50;101366.00;;;;10241276;28;20211;-78
2023/08/17 11:13:47;;;;;;;10.32;6.82;;;;;25.20;101364.00;;;;10259979;28;20199;-77
2023/08/17 11:18:50;;;;;;;11.07;6.93;;;;;25.00;101363.00;;;;10257741;28;20215;-77
2023/08/17 11:23:55;;;;;;;9.75;7.15;;;;;24.80;101360.00;;;;10256015;28;20227;-77
2023/08/17 11:28:56;;;;;;;10.00;7.10;;;;;24.40;101362.00;;;;10259383;28;20238;-76
2023/08/17 11:33:58;;;;;;;9.82;7.93;;;;;24.20;101373.00;;;;10260254;28;20207;-77
2023/08/17 11:38:59;;;;;;;15.07;8.77;;;;;24.20;101378.00;;;;10256010;28;20576;-77
2023/08/17 11:44:02;;;;;;;9.95;8.68;;;;;24.40;101382.00;;;;10241186;28;20333;-76
2023/08/17 11:49:05;;;;;;;15.35;8.65;;;;;24.40;101374.00;;;;10258481;28;20219;-76
2023/08/17 11:54:07;;;;;;;15.77;10.00;;;;;24.50;101373.00;;;;10219617;28;20203;-75
2023/08/17 11:59:14;;;;;;;14.25;9.15;;;;;24.30;101382.00;;;;10244435;28;20261;-76
2023/08/17 12:04:15;;;;;;;13.73;9.65;;;;;24.20;101372.00;;;;10264802;28;20707;-77
2023/08/17 12:09:18;;;;;;;13.77;9.55;;;;;24.40;101366.00;;;;10244493;28;20211;-76
2023/08/17 12:14:20;;;;;;;13.07;10.05;;;;;24.40;101364.00;;;;10246630;28;20207;-77
2023/08/17 12:19:22;;;;;;;12.90;10.35;;;;;24.30;101358.00;;;;10262267;28;21203;-76
2023/08/17 12:24:24;;;;;;;16.15;10.00;;;;;24.40;101352.00;;;;10259035;28;20293;-76
2023/08/17 12:29:25;;;;;;;14.63;10.82;;;;;24.20;101358.00;;;;10263611;28;20215;-77
2023/08/17 12:34:26;;;;;;;15.25;11.55;;;;;24.00;101368.00;;;;10261743;28;20445;-77
2023/08/17 12:39:31;;;;;;;15.27;11.32;;;;;23.70;101357.00;;;;10263052;28;20238;-76
2023/08/17 12:44:32;;;;;;;16.98;11.40;;;;;24.10;101348.00;;;;10264146;28;20254;-76
2023/08/17 12:49:33;;;;;;;16.25;11.75;;;;;24.50;101343.00;;;;10260886;28;21316;-75
2023/08/17 12:54:40;;;;;;;16.98;11.95;;;;;25.00;101342.00;;;;10261931;28;20294;-75
2023/08/17 12:59:41;;;;;;;16.70;12.05;;;;;25.00;101339.00;;;;10265292;28;20257;-76
2023/08/17 13:04:43;;;;;;;14.27;11.27;;;;;25.00;101344.00;;;;10257706;28;20227;-77
2023/08/17 13:09:46;;;;;;;13.88;10.77;;;;;24.80;101347.00;;;;10262061;28;20216;-76
2023/08/17 13:14:47;;;;;;;18.27;12.77;;;;;24.70;101351.00;;;;10262555;28;20207;-76
2023/08/17 13:19:49;;;;;;;19.95;12.70;;;;;24.40;101346.00;;;;10260305;28;20634;-77
2023/08/17 13:24:50;;;;;;;19.58;13.43;;;;;24.40;101339.00;;;;10243170;28;20804;-76
2023/08/17 13:29:52;;;;;;;16.20;12.65;;;;;24.40;101342.00;;;;10262450;28;20200;-77
2023/08/17 13:34:54;;;;;;;16.05;11.90;;;;;24.30;101341.00;;;;10243393;28;20304;-75
2023/08/17 13:39:55;;;;;;;15.95;12.07;;;;;24.40;101331.00;;;;10244871;28;20239;-77
2023/08/17 13:44:57;;;;;;;14.95;11.13;;;;;24.30;101329.00;;;;10259175;28;20713;-77
2023/08/17 13:49:58;;;;;;;16.42;10.80;;;;;24.60;101309.00;;;;10243709;28;20231;-76
2023/08/17 13:55:00;;;;;;;12.68;9.95;;;;;25.20;101305.00;;;;10264146;28;20219;-77
2023/08/17 14:00:03;;;;;;;15.23;9.45;;;;;25.40;101311.00;;;;10260640;28;20203;-77
2023/08/17 14:05:06;;;;;;;14.05;11.35;;;;;25.30;101316.00;;;;10258054;28;20220;-75
2023/08/17 14:10:08;;;;;;;12.20;10.30;;;;;25.00;101315.00;;;;10260962;28;21741;-76
2023/08/17 14:15:20;;;;;;;13.50;12.10;;;;;24.60;101305.00;;;;10260180;28;20696;-77
2023/08/17 14:20:21;;;;;;;13.38;11.48;;;;;24.30;101306.00;;;;10237440;28;20571;-76
2023/08/17 14:25:23;;;;;;;10.38;9.27;;;;;24.40;101301.00;;;;10242929;28;20966;-77
2023/08/17 14:30:26;;;;;;;12.90;10.48;;;;;24.40;101306.00;;;;10240643;28;21362;-76
2023/08/17 14:35:28;;;;;;;13.45;10.15;;;;;24.20;101294.00;;;;10241201;28;20207;-76
2023/08/17 14:40:29;;;;;;;14.43;10.63;;;;;24.00;101285.00;;;;10258842;28;20427;-77
2023/08/17 14:45:30;;;;;;;16.17;9.88;;;;;23.70;101277.00;;;;10259398;28;20216;-77
2023/08/17 14:50:32;;;;;;;16.88;11.70;;;;;23.60;101281.00;;;;10258796;28;20214;-77
2023/08/17 14:55:34;;;;;;;18.73;13.13;;;;;23.40;101280.00;;;;10258533;28;20210;-76
2023/08/17 15:00:35;;;;;;;14.82;12.73;;;;;23.30;101282.00;;;;10258025;28;21796;-76
2023/08/17 15:05:37;;;;;;;15.77;12.73;;;;;23.60;101274.00;;;;10258953;28;20678;-76
2023/08/17 15:10:39;;;;;;;19.40;13.10;;;;;24.00;101280.00;;;;10241927;28;20425;-76
2023/08/17 15:15:45;;;;;;;13.98;12.57;;;;;24.10;101277.00;;;;10257638;28;20235;-76
2023/08/17 15:20:47;;;;;;;15.40;12.73;;;;;24.10;101272.00;;;;10242698;28;20215;-76
2023/08/17 15:25:48;;;;;;;13.75;12.30;;;;;24.30;101263.00;;;;10240705;28;20281;-76
2023/08/17 15:31:05;;;;;;;15.25;12.20;;;;;24.50;101260.00;;;;10224187;28;20551;-76
2023/08/17 15:36:07;;;;;;;15.70;13.80;;;;;24.40;101259.00;;;;10240838;28;20217;-77
2023/08/17 15:41:08;;;;;;;15.23;13.50;;;;;24.40;101253.00;;;;10260043;28;20547;-76
2023/08/17 15:46:10;;;;;;;17.40;13.15;;;;;24.40;101247.00;;;;10240295;28;20215;-75
2023/08/17 15:51:11;;;;;;;17.25;13.55;;;;;24.40;101247.00;;;;10259003;28;20556;-78
2023/08/17 15:56:13;;;;;;;19.33;14.75;;;;;24.40;101243.00;;;;10238555;28;20593;-77
2023/08/17 16:01:19;;;;;;;17.20;14.05;;;;;24.60;101228.00;;;;10258402;28;20935;-78
2023/08/17 16:06:21;;;;;;;14.95;13.35;;;;;24.60;101229.00;;;;10258396;28;20215;-76
2023/08/17 16:11:22;;;;;;;16.95;14.73;;;;;24.50;101224.00;;;;10254824;28;21780;-76
2023/08/17 16:16:23;;;;;;;18.70;14.95;;;;;24.30;101218.00;;;;10240748;28;20223;-76
2023/08/17 16:21:25;;;;;;;17.13;14.57;;;;;24.10;101211.00;;;;10257052;28;20211;-78
2023/08/17 16:26:26;;;;;;;15.60;13.65;;;;;24.00;101213.00;;;;10252823;28;20207;-76
2023/08/17 16:31:27;;;;;;;20.23;13.73;;;;;24.00;101212.00;;;;10238933;28;20207;-77
2023/08/17 16:36:29;;;;;;;16.02;13.43;;;;;23.80;101199.00;;;;10254171;28;21402;-77
2023/08/17 16:41:30;;;;;;;19.65;14.68;;;;;23.30;101195.00;;;;10253262;28;20239;-75
2023/08/17 16:46:31;;;;;;;18.48;15.07;;;;;22.90;101193.00;;;;10262606;28;20245;-77
2023/08/17 16:51:33;;;;;;;19.05;15.13;;;;;22.70;101188.00;;;;10262418;28;20287;-77
2023/08/17 16:56:43;;;;;;;21.67;15.73;;;;;22.80;101189.00;;;;10246294;28;20215;-77
2023/08/17 17:01:44;;;;;;;24.48;15.80;;;;;23.10;101187.00;;;;10227322;28;20235;-77
2023/08/17 17:06:45;;;;;;;19.17;15.20;;;;;23.00;101184.00;;;;10262639;28;20209;-75
2023/08/17 17:11:47;;;;;;;20.27;15.25;;;;;23.20;101198.00;;;;10263198;28;20551;-77
2023/08/17 17:16:48;;;;;;;18.88;16.15;;;;;22.90;101185.00;;;;10263670;28;21239;-76
2023/08/17 17:21:49;;;;;;;19.70;16.75;;;;;22.40;101192.00;;;;10243231;28;21971;-77
2023/08/17 17:26:51;;;;;;;18.27;15.40;;;;;22.50;101193.00;;;;10260079;28;20211;-77
2023/08/17 17:31:53;;;;;;;19.70;16.20;;;;;22.50;101185.00;;;;10261283;28;20212;-75
2023/08/17 17:36:54;;;;;;;20.60;14.63;;;;;22.50;101186.00;;;;10245063;28;20253;-76
2023/08/17 17:41:57;;;;;;;19.85;16.77;;;;;22.50;101197.00;;;;10260832;28;20215;-77
2023/08/17 17:46:58;;;;;;;22.67;18.10;;;;;22.30;101195.00;;;;10257893;28;21528;-77
2023/08/17 17:51:59;;;;;;;19.35;16.08;;;;;22.10;101197.00;;;;10264317;28;20767;-76
2023/08/17 17:57:01;;;;;;;19.55;15.23;;;;;22.00;101198.00;;;;10262191;28;20211;-76
2023/08/17 18:02:02;;;;;;;22.67;15.82;;;;;21.80;101196.00;;;;10243102;28;20259;-76
2023/08/17 18:07:04;;;;;;;25.20;17.83;;;;;21.70;101196.00;;;;10244374;28;20302;-76
2023/08/17 18:12:06;;;;;;;23.65;18.27;;;;;21.40;101205.00;;;;10259134;28;20560;-76
2023/08/17 18:17:07;;;;;;;24.58;18.23;;;;;21.30;101212.00;;;;10258725;28;20332;-78
2023/08/17 18:22:09;;;;;;;22.10;19.10;;;;;21.10;101223.00;;;;10244912;28;21065;-76
2023/08/17 18:27:10;;;;;;;24.98;20.10;;;;;20.90;101218.00;;;;10226952;28;20215;-77
2023/08/17 18:32:11;;;;;;;21.42;19.00;;;;;20.80;101224.00;;;;10256340;28;20234;-77
2023/08/17 18:37:13;;;;;;;26.65;20.35;;;;;20.60;101221.00;;;;10262554;28;20222;-76
2023/08/17 18:42:14;;;;;;;21.45;19.35;;;;;20.50;101234.00;;;;10242225;28;22161;-79
2023/08/17 18:47:16;;;;;;;23.83;19.10;;;;;20.50;101232.00;;;;10243515;28;20207;-77
2023/08/17 18:52:18;;;;;;;21.80;18.60;;;;;20.50;101239.00;;;;10261724;28;20864;-76
2023/08/17 18:57:19;;;;;;;22.85;19.70;;;;;20.50;101244.00;;;;10259649;28;21018;-76
2023/08/17 19:02:22;;;;;;;23.20;20.77;;;;;20.40;101235.00;;;;10258411;28;20301;-77
2023/08/17 19:07:26;;;;;;;21.40;17.05;;;;;20.40;101232.00;;;;10242790;28;20215;-77
2023/08/17 19:12:27;;;;;;;22.65;19.63;;;;;20.30;101239.00;;;;10261609;28;20843;-76
2023/08/17 19:17:29;;;;;;;23.00;20.58;;;;;20.30;101253.00;;;;10242821;28;21457;-76
2023/08/17 19:22:30;;;;;;;26.25;20.60;;;;;20.20;101257.00;;;;10225901;28;20533;-75
2023/08/17 19:27:34;;;;;;;25.23;22.13;;;;;20.20;101260.00;;;;10257668;28;20385;-77
2023/08/17 19:32:38;;;;;;;23.45;20.92;;;;;20.20;101261.00;;;;10241834;28;20241;-76
2023/08/17 19:37:39;;;;;;;26.92;24.02;;;;;20.20;101258.00;;;;10242669;28;20336;-77
2023/08/17 19:42:41;;;;;;;24.40;21.15;;;;;20.10;101269.00;;;;10257722;28;20655;-76
2023/08/17 19:47:42;;;;;;;25.60;21.63;;;;;20.10;101273.00;;;;10258701;28;20223;-76
2023/08/17 19:52:44;;;;;;;26.77;23.80;;;;;20.00;101274.00;;;;10256894;28;20495;-75
2023/08/17 19:57:45;;;;;;;28.80;23.05;;;;;20.00;101276.00;;;;10258490;28;20329;-77
2023/08/17 20:02:47;;;;;;;26.92;22.00;;;;;20.00;101270.00;;;;10259967;28;20353;-76
2023/08/17 20:07:49;;;;;;;28.15;23.13;;;;;20.00;101272.00;;;;10239375;28;20218;-76
2023/08/17 20:12:51;;;;;;;24.42;21.60;;;;;20.00;101261.00;;;;10239055;28;20211;-76
2023/08/17 20:17:52;;;;;;;24.95;22.05;;;;;20.00;101261.00;;;;10257185;28;20257;-76
2023/08/17 20:22:54;;;;;;;25.70;22.92;;;;;19.90;101269.00;;;;10266461;28;20222;-76
2023/08/17 20:27:55;;;;;;;24.92;22.23;;;;;19.90;101266.00;;;;10263466;28;20250;-75
2023/08/17 20:32:57;;;;;;;24.17;21.02;;;;;19.90;101257.00;;;;10265844;28;20527;-75
2023/08/17 20:37:58;;;;;;;24.05;21.25;;;;;19.90;101256.00;;;;10247129;28;20548;-77
2023/08/17 20:43:00;;;;;;;23.70;20.73;;;;;19.90;101253.00;;;;10266228;28;20232;-76
2023/08/17 20:48:01;;;;;;;25.08;22.25;;;;;19.90;101250.00;;;;10263279;28;20736;-76
2023/08/17 20:53:07;;;;;;;31.00;22.95;;;;;19.90;101252.00;;;;10245481;28;20204;-76
2023/08/17 20:58:08;;;;;;;29.83;22.85;;;;;19.80;101249.00;;;;10260831;28;20298;-75
2023/08/17 21:03:10;;;;;;;25.23;22.45;;;;;19.80;101253.00;;;;10258671;28;20460;-76
2023/08/17 21:08:12;;;;;;;34.65;23.83;;;;;19.80;101249.00;;;;10259598;28;20265;-76
2023/08/17 21:13:15;;;;;;;27.98;23.45;;;;;19.80;101237.00;;;;10263315;28;20843;-77
2023/08/17 21:18:17;;;;;;;28.90;22.58;;;;;19.80;101244.00;;;;10261602;28;20231;-76
2023/08/17 21:23:18;;;;;;;31.08;23.55;;;;;19.80;101249.00;;;;10261786;28;20223;-76
2023/08/17 21:28:20;;;;;;;28.88;23.90;;;;;19.80;101244.00;;;;10244569;28;20211;-76
2023/08/17 21:33:21;;;;;;;30.77;23.20;;;;;19.80;101246.00;;;;10261766;28;20237;-76
2023/08/17 21:38:23;;;;;;;26.85;22.75;;;;;19.80;101240.00;;;;10243967;28;20207;-77
2023/08/17 21:43:24;;;;;;;28.02;23.23;;;;;19.70;101242.00;;;;10243395;28;20251;-78
2023/08/17 21:48:28;;;;;;;29.15;22.88;;;;;19.70;101240.00;;;;10261171;28;20647;-76
2023/08/17 21:53:30;;;;;;;31.77;25.27;;;;;19.70;101232.00;;;;10260543;28;20487;-77
2023/08/17 21:58:31;;;;;;;29.52;22.75;;;;;19.70;101230.00;;;;10242908;28;20218;-75
2023/08/17 22:03:33;;;;;;;30.40;23.65;;;;;19.70;101233.00;;;;10258210;28;20444;-77
2023/08/17 22:08:34;;;;;;;26.92;22.55;;;;;19.70;101237.00;;;;10260325;28;20207;-75
2023/08/17 22:13:36;;;;;;;29.70;23.15;;;;;19.70;101241.00;;;;10261004;28;20214;-76
2023/08/17 22:18:37;;;;;;;31.50;23.38;;;;;19.70;101230.00;;;;10260173;28;20215;-77
2023/08/17 22:23:38;;;;;;;28.55;23.60;;;;;19.70;101242.00;;;;10242440;28;20231;-76
2023/08/17 22:28:40;;;;;;;29.15;23.17;;;;;19.70;101237.00;;;;10259876;28;20199;-76
2023/08/17 22:33:41;;;;;;;29.30;23.50;;;;;19.60;101232.00;;;;10259438;28;20694;-77
2023/08/17 22:38:43;;;;;;;27.98;23.17;;;;;19.60;101226.00;;;;10239642;28;21028;-76
2023/08/17 22:43:44;;;;;;;30.70;23.17;;;;;19.60;101220.00;;;;10257896;28;20235;-77
2023/08/17 22:48:46;;;;;;;30.35;24.95;;;;;19.50;101214.00;;;;10259136;28;20330;-76
2023/08/17 22:53:47;;;;;;;29.23;23.77;;;;;19.50;101210.00;;;;10240390;28;20574;-75
2023/08/17 22:58:49;;;;;;;30.77;22.48;;;;;19.50;101208.00;;;;10225890;28;20222;-75
2023/08/17 23:03:50;;;;;;;35.85;25.35;;;;;19.50;101193.00;;;;10243278;28;20226;-77
2023/08/17 23:08:52;;;;;;;35.30;25.33;;;;;19.50;101193.00;;;;10261061;28;20899;-76
2023/08/17 23:13:53;;;;;;;38.15;25.98;;;;;19.50;101181.00;;;;10258915;28;20250;-77
2023/08/17 23:18:54;;;;;;;38.17;25.83;;;;;19.50;101180.00;;;;10241513;28;21608;-76
2023/08/17 23:23:59;;;;;;;36.47;25.52;;;;;19.40;101179.00;;;;10226775;28;21683;-75
2023/08/17 23:29:00;;;;;;;36.30;25.77;;;;;19.40;101177.00;;;;10226508;28;20218;-77
2023/08/17 23:34:02;;;;;;;35.45;25.85;;;;;19.40;101170.00;;;;10225089;28;20215;-74
2023/08/17 23:39:03;;;;;;;35.08;24.92;;;;;19.40;101170.00;;;;10258878;28;20675;-77
2023/08/17 23:44:05;;;;;;;35.30;25.70;;;;;19.30;101160.00;;;;10260464;28;20740;-76
2023/08/17 23:49:07;;;;;;;35.15;26.27;;;;;19.30;101162.00;;;;10258453;28;20227;-76
2023/08/17 23:54:08;;;;;;;38.45;25.50;;;;;19.30;101153.00;;;;10233332;28;20258;-76
2023/08/17 23:59:11;;;;;;;33.30;24.88;;;;;19.30;101147.00;;;;10244537;28;20290;-76
